Flight Track Log - Related Links

Times and Time Zones

All times are in EDT time to prevent confusion due to time zone crossing. See the N772XJ flight status page for this flight to view local times or setup timezone preferences in your user account.


Time Position Orientation Groundspeed Altitude Reporting Facility
EDT Latitude Longitude Course Direction KTS MPH feet Rate Location/Type
Sat 06:46:06 PM 37.6833 -122.3000 57° Northeast 217 250 4,100  Level Northern Cal TRACON
Sat 06:47:48 PM 37.7750 -122.2042 40° Northeast 268 308 7,500 2,061 Climbing Oakland Center
Sat 06:48:49 PM 37.8411 -122.1406 37° Northeast 291 335 9,700 1,918 Climbing Oakland Center
Sat 06:49:50 PM 37.9128 -122.0706 38° Northeast 318 366 11,400 1,918 Climbing Oakland Center
Sat 06:50:51 PM 37.9900 -121.9944 38° Northeast 349 402 13,600 2,115 Climbing Oakland Center
Sat 06:51:00 PM 37.8965 -121.4213 57° Northeast  Level Estimated
Sat 06:51:52 PM 38.0719 -121.9161 37° Northeast 367 422 15,700  Level Oakland Center
Sat 06:52:53 PM 38.1522 -121.8328 39° Northeast 374 430 17,500 1,869 Climbing Oakland Center
Sat 06:53:54 PM 38.2203 -121.7244 51° Northeast 392 451 19,500 1,770 Climbing Oakland Center
Sat 06:54:55 PM 38.2897 -121.6147 51° Northeast 398 458 21,100 1,574 Climbing Oakland Center
Sat 06:55:56 PM 38.3614 -121.5017 51° Northeast 409 471 22,700 1,623 Climbing Oakland Center
Sat 06:56:57 PM 38.4492 -121.3622 51° Northeast 420 483 24,400 1,623 Climbing Oakland Center
Sat 06:57:58 PM 38.5225 -121.2419 52° Northeast 429 494 26,000 1,475 Climbing Oakland Center
Sat 06:58:59 PM 38.6000 -121.1197 51° Northeast 438 504 27,400 1,426 Climbing Oakland Center
Sat 07:00:00 PM 38.6764 -120.9964 52° Northeast 445 512 28,900 1,328 Climbing Oakland Center
Sat 07:01:01 PM 38.7536 -120.8725 51° Northeast 444 511 30,100 1,131 Climbing Oakland Center
Sat 07:02:02 PM 38.8333 -120.7425 52° Northeast 457 526 31,200 1,082 Climbing Oakland Center
Sat 07:03:03 PM 38.9158 -120.6083 52° Northeast 473 544 32,300 1,082 Climbing Oakland Center
Sat 07:04:04 PM 38.9992 -120.4714 52° Northeast 482 555 33,400 1,230 Climbing Oakland Center
Sat 07:05:05 PM 39.0853 -120.3314 52° Northeast 494 568 34,800 1,279 Climbing Oakland Center
Sat 07:06:06 PM 39.1700 -120.1917 52° Northeast 495 570 36,000 1,082 Climbing Oakland Center
Sat 07:07:07 PM 39.2572 -120.0517 51° Northeast 500 575 37,000 934 Climbing Oakland Center
Sat 07:08:08 PM 39.3433 -119.9103 52° Northeast 499 574 37,900 793 Climbing Oakland Center
Sat 07:09:08 PM 39.4272 -119.7656 53° Northeast 501 577 38,600 744 Climbing Oakland Center
Sat 07:10:09 PM 39.5153 -119.6194 52° Northeast 510 587 39,400 836 Climbing Oakland Center
Sat 07:11:10 PM 39.6206 -119.4450 52° Northeast 511 588 40,300 836 Climbing Oakland Center
Sat 07:12:11 PM 39.7078 -119.2961 53° Northeast 514 592 41,100 787 Climbing Oakland Center
Sat 07:13:12 PM 39.7936 -119.1492 53° Northeast 508 585 41,900 787 Climbing Oakland Center
Sat 07:14:13 PM 39.8786 -119.0033 53° Northeast 504 580 42,700 732 Climbing Oakland Center
Sat 07:15:15 PM 39.9642 -118.8572 53° Northeast 502 578 43,400 590 Climbing Oakland Center
Sat 07:16:15 PM 40.0483 -118.7108 53° Northeast 503 579 43,900 446 Climbing Oakland Center
Sat 07:17:16 PM 40.1283 -118.5619 55° Northeast 499 574 44,300 393 Climbing Oakland Center
Sat 07:18:17 PM 40.1778 -118.3872 70° East 507 583 44,700 344 Climbing Oakland Center
Sat 07:19:18 PM 40.2247 -118.2147 70° East 504 580 45,000 148 Climbing Oakland Center
Sat 07:20:19 PM 40.2722 -118.0403 70° East 505 581 45,000  Level Oakland Center
Sat 07:21:20 PM 40.3214 -117.8597 70° East 513 590 45,000  Level Oakland Center
Sat 07:22:21 PM 40.3683 -117.6858 70° East 515 593 45,000  Level Oakland Center
Sat 07:23:22 PM 40.4200 -117.4889 71° East 520 598 45,000  Level Oakland Center
Sat 07:24:23 PM 40.4661 -117.3175 70° East 520 598 45,000  Level Oakland Center
Sat 07:25:24 PM 40.5128 -117.1439 70° East 521 600 45,000  Level Oakland Center
Sat 07:26:25 PM 40.5600 -116.9669 71° East 528 608 45,000  Level Oakland Center
Sat 07:27:26 PM 40.6131 -116.7603 71° East 526 605 45,000  Level Oakland Center
Sat 07:28:28 PM 40.6606 -116.5875 70° East 524 603 45,000  Level Oakland Center
Sat 07:29:34 PM 40.7139 -116.3864 71° East 519 597 45,000  Level Salt Lake Center
Sat 07:30:36 PM 40.7600 -116.2133 71° East 522 601 45,000  Level Salt Lake Center
Sat 07:31:37 PM 40.8122 -116.0111 71° East 522 601 45,000  Level Salt Lake Center
Sat 07:32:38 PM 40.8572 -115.8375 71° East 521 600 45,000  Level Salt Lake Center
Sat 07:33:39 PM 40.9044 -115.6647 70° East 522 601 45,000  Level Salt Lake Center
Sat 07:34:41 PM 40.9564 -115.4611 71° East 524 603 45,000  Level Salt Lake Center
Sat 07:35:42 PM 40.9997 -115.2867 72° East 522 601 45,000  Level Salt Lake Center
Sat 07:36:43 PM 41.0528 -115.0839 71° East 522 601 45,000  Level Salt Lake Center
Sat 07:37:45 PM 41.0969 -114.9100 71° East 521 600 45,000  Level Salt Lake Center
Sat 07:38:46 PM 41.1453 -114.7297 70° East 523 602 45,000  Level Salt Lake Center
Sat 07:39:47 PM 41.1881 -114.5469 73° East 521 600 45,000  Level Salt Lake Center
Sat 07:40:49 PM 41.2342 -114.3636 71° East 523 602 45,000  Level Salt Lake Center
Sat 07:41:50 PM 41.2797 -114.1794 72° East 525 604 45,000  Level Salt Lake Center
Sat 07:42:51 PM 41.3239 -113.9950 72° East 525 604 45,000  Level Salt Lake Center
Sat 07:43:53 PM 41.3722 -113.7717 74° East 526 605 45,000  Level Salt Lake Center
Sat 07:44:54 PM 41.3803 -113.5800 87° East 520 598 45,000  Level Salt Lake Center
Sat 07:45:55 PM 41.3931 -113.3892 85° East 518 596 45,000  Level Salt Lake Center
Sat 07:46:57 PM 41.4033 -113.1983 86° East 518 596 45,000  Level Salt Lake Center
Sat 07:47:58 PM 41.4150 -113.0075 85° East 516 594 45,000  Level Salt Lake Center
Sat 07:48:59 PM 41.4275 -112.8169 85° East 516 594 45,000  Level Salt Lake Center
Sat 07:50:01 PM 41.4383 -112.6261 86° East 517 595 45,000  Level Salt Lake Center
Sat 07:51:02 PM 41.4492 -112.4350 86° East 516 594 45,000  Level Salt Lake Center
Sat 07:52:03 PM 41.4600 -112.2419 86° East 521 600 45,000  Level Salt Lake Center
Sat 07:53:05 PM 41.4706 -112.0492 86° East 519 597 45,000  Level Salt Lake Center
Sat 07:54:06 PM 41.4833 -111.8181 86° East 517 595 45,000  Level Salt Lake Center
Sat 07:55:08 PM 41.4925 -111.6269 86° East 514 592 45,000  Level Salt Lake Center
Sat 07:56:09 PM 41.5022 -111.4347 86° East 517 595 45,000  Level Salt Lake Center
Sat 07:57:10 PM 41.5100 -111.2444 87° East 513 590 45,000  Level Salt Lake Center
Sat 07:58:12 PM 41.5175 -111.0561 87° East 509 586 45,000  Level Salt Lake Center
Sat 07:59:13 PM 41.5258 -110.8692 87° East 506 582 45,000  Level Salt Lake Center
Sat 08:00:15 PM 41.5336 -110.6911 87° East 504 580 45,000  Level Salt Lake Center
Sat 08:01:16 PM 41.5417 -110.4831 87° East 504 580 45,000  Level Salt Lake Center
Sat 08:02:17 PM 41.5483 -110.3053 87° East 501 577 45,000  Level Salt Lake Center
Sat 08:03:19 PM 41.5558 -110.0981 87° East 502 578 45,000  Level Salt Lake Center
Sat 08:04:20 PM 41.5619 -109.9189 87° East 504 580 45,000  Level Salt Lake Center
Sat 08:05:22 PM 41.5681 -109.7383 87° East 507 583 45,000  Level Salt Lake Center
Sat 08:06:23 PM 41.5750 -109.5294 87° East 504 580 45,000  Level Salt Lake Center
Sat 08:07:24 PM 41.5814 -109.3500 87° East 503 579 45,000  Level Salt Lake Center
Sat 08:08:25 PM 41.5881 -109.1669 87° East 507 583 45,000  Level Salt Lake Center
Sat 08:09:27 PM 41.5953 -108.9514 87° East 511 588 45,000  Level Salt Lake Center
Sat 08:10:28 PM 41.6100 -108.7689 84° East 511 588 45,000  Level Salt Lake Center
Sat 08:11:29 PM 41.6242 -108.5864 84° East 513 590 45,000  Level Salt Lake Center
Sat 08:12:31 PM 41.6386 -108.3744 85° East 514 592 45,000  Level Salt Lake Center
Sat 08:13:32 PM 41.6511 -108.1933 85° East 513 590 45,000  Level Salt Lake Center
Sat 08:14:33 PM 41.6675 -107.9819 84° East 510 587 45,000  Level Salt Lake Center
Sat 08:15:20 PM 41.6775 -107.8311 85° East 508 585 45,000  Level Denver Center
Sat 08:16:22 PM 41.6892 -107.6506 85° East 509 586 45,000  Level Denver Center
Sat 08:17:23 PM 41.7017 -107.4700 85° East 509 586 45,000  Level Denver Center
Sat 08:18:24 PM 41.7153 -107.2581 85° East 511 588 45,000  Level Denver Center
Sat 08:19:26 PM 41.7261 -107.0739 85° East 517 595 45,000  Level Denver Center
Sat 08:20:27 PM 41.7400 -106.8619 85° East 512 589 45,000  Level Denver Center
Sat 08:21:28 PM 41.7503 -106.6792 86° East 515 593 45,000  Level Denver Center
Sat 08:22:30 PM 41.7611 -106.5003 85° East 518 596 45,000  Level Denver Center
Sat 08:23:31 PM 41.7722 -106.2883 86° East 511 588 45,000  Level Denver Center
Sat 08:24:32 PM 41.7833 -106.1058 85° East 514 592 45,000  Level Denver Center
Sat 08:25:34 PM 41.7936 -105.8939 86° East 512 589 45,000  Level Denver Center
Sat 08:26:35 PM 41.8033 -105.7139 86° East 508 585 45,000  Level Denver Center
Sat 08:27:37 PM 41.8122 -105.5358 86° East 503 579 45,000  Level Denver Center
Sat 08:28:38 PM 41.8225 -105.3253 86° East 505 581 45,000  Level Denver Center
Sat 08:29:39 PM 41.8303 -105.1469 87° East 503 579 45,000  Level Denver Center
Sat 08:30:41 PM 41.8389 -104.9369 87° East 507 583 45,000  Level Denver Center
Sat 08:31:42 PM 41.8467 -104.7564 87° East 509 586 45,000  Level Denver Center
Sat 08:32:43 PM 41.8556 -104.5486 87° East 506 582 45,000  Level Denver Center
Sat 08:33:45 PM 41.8622 -104.3694 87° East 505 581 45,000  Level Denver Center
Sat 08:34:46 PM 41.8692 -104.1892 87° East 507 583 45,000  Level Denver Center
Sat 08:35:47 PM 41.8772 -103.9794 87° East 507 583 45,000  Level Denver Center
Sat 08:36:49 PM 41.8828 -103.8000 88° East 506 582 45,000  Level Denver Center
Sat 08:37:50 PM 41.8897 -103.5897 87° East 506 582 45,000  Level Denver Center
Sat 08:38:51 PM 41.9028 -103.4117 84° East 504 580 45,000  Level Denver Center
Sat 08:39:52 PM 41.9286 -103.2356 79° East 505 581 45,000  Level Denver Center
Sat 08:40:54 PM 41.9558 -103.0319 80° East 499 574 45,000  Level Denver Center
Sat 08:41:55 PM 41.9811 -102.8539 79° East 505 581 45,000  Level Denver Center
Sat 08:42:56 PM 42.0092 -102.6494 79° East 501 577 45,000  Level Denver Center
Sat 08:43:57 PM 42.0325 -102.4733 80° East 502 578 45,000  Level Denver Center
Sat 08:44:59 PM 42.0561 -102.2958 80° East 504 580 45,000  Level Denver Center
Sat 08:46:00 PM 42.0817 -102.0983 80° East 500 575 45,000  Level Denver Center
Sat 08:47:01 PM 42.1053 -101.9206 80° East 502 578 45,000  Level Denver Center
Sat 08:48:02 PM 42.1319 -101.7142 80° East 501 577 45,000  Level Denver Center
Sat 08:49:04 PM 42.1547 -101.5367 80° East 501 577 45,000  Level Denver Center
Sat 08:50:05 PM 42.1792 -101.3292 81° East 502 578 45,000  Level Denver Center
Sat 08:51:06 PM 42.2003 -101.1522 81° East 499 574 45,000  Level Denver Center
Sat 08:52:07 PM 42.2219 -100.9758 81° East 497 572 45,000  Level Denver Center
Sat 08:53:08 PM 42.2456 -100.7714 81° East 494 568 45,000  Level Denver Center
Sat 08:54:10 PM 42.2664 -100.5931 81° East 499 574 45,000  Level Denver Center
Sat 08:55:11 PM 42.2867 -100.4139 81° East 502 578 45,000  Level Denver Center
Sat 08:56:12 PM 42.3100 -100.2061 81° East 502 578 45,000  Level Denver Center
Sat 08:57:13 PM 42.3306 -100.0286 81° East 500 575 45,000  Level Denver Center
Sat 08:58:15 PM 42.3528 -99.8194 82° East 503 579 45,000  Level Denver Center
Sat 08:59:16 PM 42.3703 -99.6636 81° East 500 575 45,000  Level Denver Center
Sat 09:00:17 PM 42.3894 -99.4775 82° East 499 574 45,000  Level Denver Center
Sat 09:01:18 PM 42.4131 -99.2536 82° East 499 574 45,000  Level Denver Center
Sat 09:02:31 PM 42.4364 -99.0308 82° East 499 574 45,000  Level Minneapolis Center
Sat 09:03:33 PM 42.4558 -98.8419 82° East 503 579 45,000  Level Minneapolis Center
Sat 09:04:34 PM 42.4725 -98.6531 83° East 503 579 45,000  Level Minneapolis Center
Sat 09:05:35 PM 42.4822 -98.4636 86° East 504 580 45,000  Level Minneapolis Center
Sat 09:06:37 PM 42.4919 -98.2728 86° East 505 581 45,000  Level Minneapolis Center
Sat 09:07:38 PM 42.5008 -98.0828 86° East 505 581 45,000  Level Minneapolis Center
Sat 09:08:40 PM 42.5083 -97.8928 87° East 504 580 45,000  Level Minneapolis Center
Sat 09:09:41 PM 42.5172 -97.6794 87° East 505 581 45,000  Level Minneapolis Center
Sat 09:10:42 PM 42.5261 -97.4894 86° East 504 580 45,000  Level Minneapolis Center
Sat 09:11:44 PM 42.5328 -97.3000 87° East 504 580 45,000  Level Minneapolis Center
Sat 09:12:45 PM 42.5406 -97.1081 87° East 509 586 45,000  Level Minneapolis Center
Sat 09:13:46 PM 42.5475 -96.9183 87° East 505 581 45,000  Level Minneapolis Center
Sat 09:14:47 PM 42.5542 -96.7275 87° East 506 582 45,000  Level Minneapolis Center
Sat 09:15:49 PM 42.5606 -96.5369 87° East 505 581 45,000  Level Minneapolis Center
Sat 09:16:50 PM 42.5667 -96.3481 87° East 502 578 45,000  Level Minneapolis Center
Sat 09:17:51 PM 42.5717 -96.1578 88° East 503 579 45,000  Level Minneapolis Center
Sat 09:18:52 PM 42.5772 -95.9694 88° East 501 577 45,000  Level Minneapolis Center
Sat 09:19:53 PM 42.5825 -95.7794 88° East 502 578 45,000  Level Minneapolis Center
Sat 09:20:54 PM 42.5875 -95.5878 88° East 505 581 45,000  Level Minneapolis Center
Sat 09:21:56 PM 42.5908 -95.3989 89° East 504 580 45,000  Level Minneapolis Center
Sat 09:22:56 PM 42.5956 -95.2092 88° East 503 579 45,000  Level Minneapolis Center
Sat 09:23:58 PM 42.5994 -94.9786 89° East 505 581 45,000  Level Minneapolis Center
Sat 09:24:59 PM 42.6036 -94.7886 88° East 505 581 45,000  Level Minneapolis Center
Sat 09:26:00 PM 42.6058 -94.5947 89° East 504 580 45,000  Level Minneapolis Center
Sat 09:27:01 PM 42.6072 -94.4050 89° East 508 585 45,000  Level Minneapolis Center
Sat 09:28:02 PM 42.6089 -94.2178 89° East 505 581 45,000  Level Minneapolis Center
Sat 09:29:03 PM 42.5986 -94.0289 94° East 506 582 45,000  Level Minneapolis Center
Sat 09:30:04 PM 42.5878 -93.8408 94° East 506 582 45,000  Level Minneapolis Center
Sat 09:31:05 PM 42.5808 -93.6536 93° East 505 581 45,000  Level Minneapolis Center
Sat 09:32:06 PM 42.5722 -93.4639 93° East 507 583 45,000  Level Minneapolis Center
Sat 09:33:19 PM 42.5619 -93.2750 94° East 508 585 45,000  Level Minneapolis Center
Sat 09:34:04 PM 42.5519 -93.0844 94° East 510 587 45,000  Level Chicago Center
Sat 09:35:05 PM 42.5414 -92.8958 94° East 508 585 45,000  Level Chicago Center
Sat 09:36:06 PM 42.5283 -92.6656 94° East 516 594 45,000  Level Chicago Center
Sat 09:37:07 PM 42.5181 -92.4758 94° East 513 590 45,000  Level Chicago Center
Sat 09:38:08 PM 42.5061 -92.2858 95° East 513 590 45,000  Level Chicago Center
Sat 09:39:08 PM 42.4944 -92.0958 95° East 515 593 45,000  Level Chicago Center
Sat 09:40:09 PM 42.4828 -91.9047 95° East 518 596 45,000  Level Chicago Center
Sat 09:41:10 PM 42.4706 -91.7147 95° East 518 596 45,000  Level Chicago Center
Sat 09:42:11 PM 42.4581 -91.5253 95° East 517 595 45,000  Level Chicago Center
Sat 09:43:11 PM 42.4428 -91.2967 95° East 521 600 45,000  Level Chicago Center
Sat 09:44:12 PM 42.4300 -91.1058 95° East 518 596 45,000  Level Chicago Center
Sat 09:45:13 PM 42.4164 -90.9131 95° East 521 600 45,000  Level Chicago Center
Sat 09:46:14 PM 42.4028 -90.7197 95° East 523 602 45,000  Level Chicago Center
Sat 09:47:14 PM 42.3906 -90.5281 95° East 520 598 45,000  Level Chicago Center
Sat 09:48:15 PM 42.3811 -90.3347 94° East 521 600 45,000  Level Chicago Center
Sat 09:49:16 PM 42.3717 -90.1383 94° East 528 608 45,000  Level Chicago Center
Sat 09:50:16 PM 42.3611 -89.9428 94° East 528 608 45,000  Level Chicago Center
Sat 09:51:17 PM 42.3481 -89.7475 95° East 528 608 45,000  Level Chicago Center
Sat 09:52:18 PM 42.3331 -89.5131 95° East 529 609 45,000  Level Chicago Center
Sat 09:53:19 PM 42.3228 -89.3469 95° East 530 610 45,000  Level Chicago Center
Sat 09:54:19 PM 42.3086 -89.1097 95° East 530 610 45,000  Level Chicago Center
Sat 09:55:20 PM 42.2936 -88.9128 96° East 528 608 45,000  Level Chicago Center
Sat 09:56:21 PM 42.2797 -88.7158 95° East 528 608 45,000  Level Chicago Center
Sat 09:57:21 PM 42.2653 -88.5194 96° East 528 608 45,000  Level Chicago Center
Sat 09:58:22 PM 42.2506 -88.3242 96° East 525 604 45,000  Level Chicago Center
Sat 09:59:23 PM 42.2353 -88.1256 96° East 531 611 45,000  Level Chicago Center
Sat 10:00:23 PM 42.2194 -87.9292 96° East 529 609 45,000  Level Chicago Center
Sat 10:01:24 PM 42.2092 -87.7314 94° East 529 609 45,000  Level Chicago Center
Sat 10:02:25 PM 42.1994 -87.5339 94° East 530 610 45,000  Level Chicago Center
Sat 10:03:25 PM 42.1872 -87.3375 95° East 527 606 45,000  Level Chicago Center
Sat 10:04:26 PM 42.1769 -87.1403 94° East 530 610 45,000  Level Chicago Center
Sat 10:05:26 PM 42.1642 -86.9428 95° East 529 609 45,000  Level Chicago Center
Sat 10:06:27 PM 42.1553 -86.7472 93° East 528 608 45,000  Level Chicago Center
Sat 10:07:28 PM 42.1628 -86.5256 87° East 528 608 45,000  Level Chicago Center
Sat 10:08:28 PM 42.1708 -86.3294 87° East 525 604 45,000  Level Chicago Center
Sat 10:09:29 PM 42.1767 -86.1322 88° East 527 606 45,000  Level Chicago Center
Sat 10:10:29 PM 42.1819 -85.9525 88° East 524 603 45,000  Level Chicago Center
Sat 10:11:30 PM 42.1869 -85.7575 88° East 525 604 45,000  Level Chicago Center
Sat 10:12:30 PM 42.1933 -85.5628 87° East 525 604 45,000  Level Chicago Center
Sat 10:13:31 PM 42.1978 -85.3675 88° East 525 604 45,000  Level Chicago Center
Sat 10:14:31 PM 42.2050 -85.1669 87° East 547 629 45,000  Level Chicago Center
Sat 10:15:32 PM 42.2089 -84.9714 88° East 530 610 45,000  Level Chicago Center
Sat 10:16:33 PM 42.2133 -84.7756 88° East 526 605 45,000  Level Chicago Center
Sat 10:17:33 PM 42.2169 -84.5778 89° East 530 610 45,000  Level Chicago Center
Sat 10:18:34 PM 42.2206 -84.3794 89° East 531 611 45,000  Level Chicago Center
Sat 10:19:34 PM 42.2242 -84.1417 89° East 531 611 45,000  Level Chicago Center
Sat 10:20:39 PM 42.2239 -83.9314 90° East 522 601 45,000  Level Cleveland Center
Sat 10:21:39 PM 42.2169 -83.7289 93° East 528 608 45,000  Level Cleveland Center
Sat 10:22:39 PM 42.2119 -83.5269 92° East 542 624 45,000  Level Cleveland Center
Sat 10:23:39 PM 42.2044 -83.3219 93° East 542 624 45,000  Level Cleveland Center
Sat 10:24:39 PM 42.1964 -83.1364 93° East 536 617 45,000  Level Cleveland Center
Sat 10:25:39 PM 42.1881 -82.9372 93° East 541 623 45,000  Level Cleveland Center
Sat 10:26:39 PM 42.1794 -82.7350 93° East 536 617 45,000  Level Cleveland Center
Sat 10:27:39 PM 42.1706 -82.5331 93° East 536 617 45,000  Level Cleveland Center
Sat 10:28:39 PM 42.1611 -82.3367 94° East 536 617 45,000  Level Cleveland Center
Sat 10:29:39 PM 42.1536 -82.1347 93° East 536 617 45,000  Level Cleveland Center
Sat 10:30:39 PM 42.1436 -81.9358 94° East 536 617 45,000  Level Cleveland Center
Sat 10:31:39 PM 42.1336 -81.7144 93° East 536 617 45,000  Level Cleveland Center
Sat 10:32:39 PM 42.1208 -81.5097 95° East 541 623 45,000  Level Cleveland Center
Sat 10:33:39 PM 42.1097 -81.3108 94° East 535 616 45,000  Level Cleveland Center
Sat 10:34:39 PM 42.0983 -81.1092 94° East 540 621 45,000  Level Cleveland Center
Sat 10:35:39 PM 42.0886 -80.9078 94° East 541 623 45,000  Level Cleveland Center
Sat 10:36:39 PM 42.0744 -80.7089 95° East 536 617 45,000  Level Cleveland Center
Sat 10:37:39 PM 42.0622 -80.5078 95° East 541 623 45,000  Level Cleveland Center
Sat 10:38:39 PM 42.0492 -80.3036 95° East 542 624 45,000  Level Cleveland Center
Sat 10:39:39 PM 42.0383 -80.1247 95° East 542 624 45,000  Level Cleveland Center
Sat 10:40:39 PM 42.0269 -79.9236 94° East 537 618 45,000  Level Cleveland Center
Sat 10:41:39 PM 42.0111 -79.7253 96° East 537 618 45,000  Level Cleveland Center
Sat 10:42:39 PM 41.9967 -79.5186 95° East 537 618 45,000  Level Cleveland Center
Sat 10:43:39 PM 41.9822 -79.3150 95° East 537 618 45,000  Level Cleveland Center
Sat 10:44:39 PM 41.9672 -79.1142 96° East 542 624 45,000  Level Cleveland Center
Sat 10:45:39 PM 41.9519 -78.9136 96° East 542 624 45,000  Level Cleveland Center
Sat 10:46:39 PM 41.9364 -78.7103 96° East 537 618 45,000 -50 Level Cleveland Center
Sat 10:47:39 PM 41.9203 -78.5069 96° East 537 618 44,900 -900 Descending Cleveland Center
Sat 10:48:39 PM 41.9019 -78.3067 97° East 537 618 43,200 -1,969 Descending Cleveland Center
Sat 10:50:51 PM 41.8589 -77.8392 97° East 551 634 38,600 -2,063 Descending New York Center
Sat 10:51:51 PM 41.8081 -77.6417 109° East 556 640 36,600 -1,800 Descending New York Center
Sat 10:52:51 PM 41.7567 -77.4472 109° East 556 640 35,000 -900 Descending New York Center
Sat 10:53:51 PM 41.7050 -77.2503 109° East 556 640 34,800 -600 Descending New York Center
Sat 10:54:51 PM 41.6508 -77.0561 110° East 561 646 33,800 -1,000 Descending New York Center
Sat 10:55:51 PM 41.6006 -76.8628 109° East 561 646 32,800 -900 Descending New York Center
Sat 10:56:51 PM 41.5561 -76.7092 111° Southeast 561 646 32,000 -1,200 Descending New York Center
Sat 10:57:51 PM 41.4997 -76.5017 110° East 556 640 30,400 -2,050 Descending New York Center
Sat 10:58:51 PM 41.4525 -76.3150 109° East 544 626 27,900 -3,025 Descending New York Center
Sat 10:59:52 PM 41.3964 -76.1278 112° Southeast 544 626 24,300 -3,550 Descending New York Center
Sat 11:00:51 PM 41.3442 -75.9469 111° Southeast 519 597 20,800 -3,227 Descending New York Center
Sat 11:01:51 PM 41.3044 -75.8031 110° East 487 560 17,900 -3,000 Descending New York Center
Sat 11:02:51 PM 41.2550 -75.6392 112° Southeast 456 525 14,800 -2,750 Descending New York Center
Sat 11:03:51 PM 41.2181 -75.5233 113° Southeast 402 463 12,400 -1,900 Descending New York Center
Sat 11:04:51 PM 41.1789 -75.4050 114° Southeast 365 420 11,000 -1,600 Descending New York Center
Sat 11:05:51 PM 41.1378 -75.2892 115° Southeast 333 383 9,200 -1,500 Descending New York Center
Sat 11:06:51 PM 41.1061 -75.1906 113° Southeast 294 338 8,000 -1,150 Descending New York Center
Sat 11:07:51 PM 41.0761 -75.1006 114° Southeast 294 338 6,900 -1,000 Descending New York Center
Sat 11:08:51 PM 41.0419 -75.0022 115° Southeast 289 333 6,000 -450 Descending New York Center
Sat 11:09:51 PM 41.0142 -74.9042 111° Southeast 289 333 6,000 -350 Level New York Center
Sat 11:10:51 PM 41.0122 -74.7858 91° East 284 327 5,300 -800 Descending New York Center
Sat 11:11:51 PM 41.0136 -74.6814 89° East 284 327 4,400 -950 Descending New York Center
Sat 11:12:51 PM 41.0147 -74.5769 89° East 284 327 3,400 -700 Descending New York Center
Sat 11:13:51 PM 41.0183 -74.4700 87° East 284 327 3,000 -200 Descending New York Center
Sat 11:14:51 PM 41.0214 -74.3711 88° East 284 327 3,000  Level New York Center
Sat 11:15:22 PM 41.0167 -74.3167 97° East 274 315 3,000 -462 Level New York TRACON
Sat 11:16:22 PM 41.0167 -74.2167 90° East 276 318 2,300 -526 Descending New York TRACON
Sat 11:17:16 PM 41.0333 -74.1333 75° East 259 298 2,000 -158 Descending New York TRACON
Sat 11:18:16 PM 40.9833 -74.0667 135° Southeast 212 244 2,000 -232 Level New York TRACON
Sat 11:19:51 PM 40.9264 -74.0558 172° South 160 184 1,400 -476 Descending New York Center
Sat 11:20:22 PM 40.9000 -74.0500 171° South 128 147 1,000 -725 Descending New York TRACON
Sat 11:21:22 PM 40.8667 -74.0667 201° Southwest 119 137 300 -700 Descending New York TRACON
Sat 11:23:00 PM 40.8500 -74.0500 180° South  Level FlightAware Approximate

Login

Don't have an account? Register now (free) for customized features, flight alerts, and more!